Jamie Marie — WDE7178 — position and weather

sailwx.info

Track history (hours):
 
Tides and Currents Weather Stations Pressure Air Temp Water Temp Dewpoint Dewpoint Depression Visibility Wind Speed Wind Dir Waves Ship Positions

Jamie Marie

Owner: Jamie Marie, Inc., Aberdeen, WA. More information available from US FCC via Universal Licensing System and Coast Guard Vessel Documentation Center.

Last reported at 2017-Jun-24 05:01 UTC. Time now 2017-Jun-24 05:24 UTC.
Position N 47°06' W 124°25'.

Length 30 m.

Type: Fishing. MMSI: 366425240.

Date/timePositionNaut miles runAvg speedWind from/ knotsBaromVisibWave heightAir tempDewpointWater temp
2017-Jun-24 05:01N 47°06' W 124°25'4 8.7
2017-Jun-24 04:31N 47°10' W 124°29'5 9.2
2017-Jun-24 04:00N 47°14' W 124°33'5 9.3
2017-Jun-24 03:30N 47°17' W 124°37'5 9.0
2017-Jun-24 03:00N 47°21' W 124°41'4 8.8
2017-Jun-24 02:30N 47°25' W 124°45'4 8.8
2017-Jun-24 02:01N 47°28' W 124°49'4 8.8
2017-Jun-24 01:30N 47°32' W 124°53'5 8.9
2017-Jun-24 00:54N 47°36' W 124°58'3 8.9
2017-Jun-24 00:30N 47°39' W 125°01'4 7.6
2017-Jun-24 00:00N 47°42' W 125°04'1 2.9
2017-Jun-23 23:30N 47°43' W 125°03'1 2.8
2017-Jun-23 23:00N 47°44' W 125°04'1 1.7
2017-Jun-23 22:30N 47°44' W 125°05'1 2.4
2017-Jun-23 22:00N 47°43' W 125°05'1 2.9
2017-Jun-23 21:30N 47°42' W 125°05'2 3.1
2017-Jun-23 21:00N 47°40' W 125°06'4 8.3
2017-Jun-23 20:30N 47°37' W 125°03'4 8.7
2017-Jun-23 20:01N 47°33' W 124°59'4 8.5
2017-Jun-23 19:30N 47°30' W 124°55'4 8.4
2017-Jun-23 19:00N 47°26' W 124°52'4 8.3
2017-Jun-23 18:30N 47°23' W 124°48'0 0.5
2017-Jun-23 18:00N 47°23' W 124°48'1 2.7
2017-Jun-23 17:30N 47°24' W 124°48'1 3.0
2017-Jun-23 17:00N 47°26' W 124°49'1 2.7
2017-Jun-23 16:30N 47°27' W 124°50'3 6.3
2017-Jun-23 16:00N 47°24' W 124°48'3 6.0
2017-Jun-23 15:30N 47°21' W 124°48'3 6.9
2017-Jun-23 15:00N 47°18' W 124°45'3 2.8
2017-Jun-23 14:01N 47°16' W 124°44'4 7.2
2017-Jun-23 13:30N 47°13' W 124°40'4 7.2
2017-Jun-23 13:00N 47°10' W 124°36'4 7.4
2017-Jun-23 12:30N 47°08' W 124°32'4 7.3
2017-Jun-23 12:00N 47°05' W 124°29'4 7.3
2017-Jun-23 11:30N 47°03' W 124°25'4 7.4
2017-Jun-23 11:00N 47°00' W 124°21'4 7.6
2017-Jun-23 10:30N 46°57' W 124°17'4 7.9
2017-Jun-23 10:00N 46°55' W 124°12'4 8.2
2017-Jun-23 09:30N 46°54' W 124°06'0 0.1
2017-Jun-23 09:00N 46°54' W 124°06'0 0.0
2017-Jun-23 08:30N 46°54' W 124°06'0 0.0
2017-Jun-23 08:00N 46°54' W 124°06'0 0.0
2017-Jun-23 07:30N 46°54' W 124°06'0 0.0
2017-Jun-23 07:00N 46°54' W 124°06'0 0.0
2017-Jun-23 06:30N 46°54' W 124°06'0 0.0
2017-Jun-23 06:00N 46°54' W 124°06'0 0.0
2017-Jun-23 05:30N 46°54' W 124°06'0 0.0
2017-Jun-23 05:01N 46°54' W 124°06'0 0.0
2017-Jun-23 04:31N 46°54' W 124°06'0 0.0
2017-Jun-23 04:00N 46°54' W 124°06'0 0.0
2017-Jun-23 03:29N 46°54' W 124°06'1 1.7
2017-Jun-23 03:00N 46°55' W 124°07'5 9.3
2017-Jun-23 02:30N 46°56' W 124°14'4 9.0
2017-Jun-23 02:00N 46°59' W 124°19'5 9.1
2017-Jun-23 01:30N 47°02' W 124°24'5 9.3
2017-Jun-23 01:00N 47°05' W 124°29'5 9.0
2017-Jun-23 00:30N 47°08' W 124°34'4 8.9
2017-Jun-23 00:00N 47°11' W 124°39'4 8.7
2017-Jun-22 23:31N 47°14' W 124°43'2 4.6
2017-Jun-22 23:00N 47°15' W 124°46'1 2.8
2017-Jun-22 22:30N 47°16' W 124°46'1 2.4
2017-Jun-22 22:00N 47°18' W 124°46'1 3.0
2017-Jun-22 21:30N 47°19' W 124°46'2 3.1
2017-Jun-22 20:58N 47°21' W 124°47'1 3.2
2017-Jun-22 20:30N 47°22' W 124°47'2 3.2
2017-Jun-22 19:58N 47°24' W 124°48'2 3.2
2017-Jun-22 19:23N 47°26' W 124°49'1 3.1
2017-Jun-22 18:55N 47°27' W 124°50'1 3.3
2017-Jun-22 18:30N 47°28' W 124°51'1 1.5
2017-Jun-22 17:45N 47°27' W 124°50'2 6.2
2017-Jun-22 17:21N 47°25' W 124°48'6 3.9
2017-Jun-22 15:53N 47°19' W 124°46'1 2.5
2017-Jun-22 15:24N 47°20' W 124°46'2 2.3
2017-Jun-22 14:34N 47°22' W 124°47'2 3.2
2017-Jun-22 13:50N 47°24' W 124°48'2 3.6
2017-Jun-22 13:23N 47°26' W 124°49'6 3.3
2017-Jun-22 11:27N 47°20' W 124°46'4 7.6
2017-Jun-22 10:56N 47°17' W 124°42'5 7.7
2017-Jun-22 10:15N 47°13' W 124°37'1811.6
2017-Jun-22 08:42N 46°60' W 124°19'1 6.1
2017-Jun-22 08:30N 46°59' W 124°18'3 6.5
2017-Jun-22 08:00N 47°01' W 124°21'4 7.0
2017-Jun-22 07:29N 46°59' W 124°18'3 6.7
2017-Jun-22 07:00N 46°56' W 124°14'3 6.1
2017-Jun-22 06:30N 46°55' W 124°10'3 5.6
2017-Jun-22 06:00N 46°54' W 124°06'0 0.0
2017-Jun-22 05:30N 46°54' W 124°06'0 0.0
2017-Jun-22 05:00N 46°54' W 124°06'0 0.0
2017-Jun-22 04:30N 46°54' W 124°06'0 0.0
2017-Jun-22 04:00N 46°54' W 124°06'0 0.0
2017-Jun-22 03:30N 46°54' W 124°06'0 0.0
2017-Jun-22 02:42N 46°54' W 124°06'0 0.0
2017-Jun-22 02:30N 46°54' W 124°06'0 0.0
2017-Jun-22 02:00N 46°54' W 124°06'0 0.0
2017-Jun-22 01:30N 46°54' W 124°06'0 0.0
2017-Jun-22 01:00N 46°54' W 124°06'0 0.0
2017-Jun-22 00:30N 46°54' W 124°06'0 0.0
2017-Jun-22 00:00N 46°54' W 124°06'0 0.0
2017-Jun-21 23:30N 46°54' W 124°06'0 0.0
2017-Jun-21 23:00N 46°54' W 124°06'0 0.0
2017-Jun-21 22:30N 46°54' W 124°06'0 0.0
2017-Jun-21 22:00N 46°54' W 124°06'0 0.0
2017-Jun-21 21:30N 46°54' W 124°06'0 0.0
2017-Jun-21 21:00N 46°54' W 124°06'0 0.0
2017-Jun-21 20:30N 46°54' W 124°06'0 0.4
2017-Jun-21 20:00N 46°55' W 124°07'0 0.0
2017-Jun-21 19:30N 46°55' W 124°07'0 0.4
2017-Jun-21 19:00N 46°54' W 124°06'0 0.1
2017-Jun-21 18:30N 46°54' W 124°06'0 0.0
2017-Jun-21 18:00N 46°54' W 124°06'0 0.0
2017-Jun-21 17:30N 46°54' W 124°06'0 0.0
2017-Jun-21 17:00N 46°54' W 124°06'0 0.0
2017-Jun-21 16:30N 46°54' W 124°06'0 0.0
2017-Jun-21 16:00N 46°54' W 124°06'0 0.0
2017-Jun-21 15:17N 46°54' W 124°06'0 0.0
2017-Jun-21 14:58N 46°54' W 124°06'0 0.0
2017-Jun-21 14:30N 46°54' W 124°06'0 0.0
2017-Jun-21 13:30N 46°54' W 124°06'0 0.0
2017-Jun-21 13:00N 46°54' W 124°06'0 0.0
2017-Jun-21 12:30N 46°54' W 124°06'0 0.1
2017-Jun-21 12:00N 46°54' W 124°06'0 0.0
2017-Jun-21 11:22N 46°54' W 124°06'0 0.0
2017-Jun-21 10:49N 46°54' W 124°06'0 0.0
2017-Jun-21 10:30N 46°54' W 124°06'0 0.0
2017-Jun-21 10:00N 46°54' W 124°06'0 0.0
2017-Jun-21 09:30N 46°54' W 124°06'0 0.0
2017-Jun-21 09:00N 46°54' W 124°06'0 0.0
2017-Jun-21 08:30N 46°54' W 124°06'0 0.0
2017-Jun-21 08:00N 46°54' W 124°06'0 0.0
2017-Jun-21 07:30N 46°54' W 124°06'0 0.0
2017-Jun-21 07:00N 46°54' W 124°06'0 0.0
2017-Jun-21 06:30N 46°54' W 124°06'0 0.0
2017-Jun-21 06:00N 46°54' W 124°06'0 0.0
2017-Jun-21 05:30N 46°54' W 124°06'0 0.0
2017-Jun-21 05:00N 46°54' W 124°06'2 3.0
2017-Jun-21 04:29N 46°55' W 124°09'3 6.4
2017-Jun-21 04:00N 46°53' W 124°13'3 5.7
2017-Jun-21 03:30N 46°51' W 124°14'3 5.6
2017-Jun-21 03:00N 46°48' W 124°15'3 6.3
2017-Jun-21 02:30N 46°45' W 124°17'3 6.4
2017-Jun-21 02:01N 46°42' W 124°19'3 6.4
2017-Jun-21 01:30N 46°39' W 124°20'3 6.4
2017-Jun-21 01:00N 46°36' W 124°22'3 6.3
2017-Jun-21 00:30N 46°33' W 124°23'3 6.3
2017-Jun-21 00:00N 46°30' W 124°25'3 6.7
2017-Jun-20 23:30N 46°27' W 124°26'3 6.1
2017-Jun-20 23:00N 46°24' W 124°28'3 5.7
2017-Jun-20 22:30N 46°21' W 124°29'3 5.5
2017-Jun-20 22:00N 46°19' W 124°31'3 5.4
2017-Jun-20 21:30N 46°16' W 124°32'3 5.2
2017-Jun-20 21:01N 46°14' W 124°33'0 0.2
2017-Jun-20 20:30N 46°14' W 124°33'1 2.2
2017-Jun-20 20:00N 46°15' W 124°33'1 2.9
2017-Jun-20 19:30N 46°15' W 124°31'2 3.1
2017-Jun-20 19:01N 46°16' W 124°28'4 7.6
2017-Jun-20 18:30N 46°15' W 124°34'3 5.1
2017-Jun-20 18:00N 46°16' W 124°38'0 0.5
2017-Jun-20 17:30N 46°16' W 124°37'1 1.4
2017-Jun-20 17:01N 46°15' W 124°36'1 1.7
2017-Jun-20 16:30N 46°16' W 124°35'1 2.9
2017-Jun-20 16:00N 46°15' W 124°33'2 2.9
2017-Jun-20 15:30N 46°16' W 124°31'2 3.4
2017-Jun-20 15:00N 46°16' W 124°29'4 3.8
2017-Jun-20 14:00N 46°15' W 124°34'3 6.1
2017-Jun-20 13:30N 46°16' W 124°30'3 6.8
2017-Jun-20 13:00N 46°19' W 124°26'4 8.6
2017-Jun-20 12:31N 46°23' W 124°25'4 8.6
2017-Jun-20 12:00N 46°27' W 124°23'4 8.2
2017-Jun-20 11:30N 46°31' W 124°22'4 8.3
2017-Jun-20 11:00N 46°35' W 124°20'4 8.1
2017-Jun-20 10:30N 46°39' W 124°18'4 8.2
2017-Jun-20 10:00N 46°43' W 124°17'4 8.5
2017-Jun-20 09:30N 46°47' W 124°16'5 9.0
2017-Jun-20 09:00N 46°51' W 124°14'4 8.7
2017-Jun-20 08:30N 46°55' W 124°11'3 5.8
2017-Jun-20 08:00N 46°54' W 124°06'0 0.0
2017-Jun-20 07:30N 46°54' W 124°06'0 0.2
2017-Jun-20 07:01N 46°54' W 124°06'0 0.2
2017-Jun-20 06:30N 46°54' W 124°06'0 0.0
2017-Jun-20 06:00N 46°54' W 124°06'0 0.0
2017-Jun-20 05:29N 46°54' W 124°06'0 0.0
2017-Jun-20 05:00N 46°54' W 124°06'0 0.0
2017-Jun-20 04:30N 46°54' W 124°06'0 0.0
2017-Jun-20 04:01N 46°54' W 124°06'0 0.0
2017-Jun-20 03:30N 46°54' W 124°06'0 0.0
2017-Jun-20 03:00N 46°54' W 124°06'0 0.0
2017-Jun-20 02:30N 46°54' W 124°06'0 0.0
2017-Jun-20 01:59N 46°54' W 124°06'0 0.0
2017-Jun-20 01:30N 46°54' W 124°06'0 0.0
2017-Jun-20 01:00N 46°54' W 124°06'0 0.0
2017-Jun-20 00:30N 46°54' W 124°06'0 0.0
2017-Jun-20 00:00N 46°54' W 124°06'0 0.0
2017-Jun-19 23:30N 46°54' W 124°06'0 0.0
2017-Jun-19 23:00N 46°54' W 124°06'0 0.0
2017-Jun-19 22:30N 46°54' W 124°06'1 1.4
2017-Jun-19 22:00N 46°55' W 124°07'3 6.1
2017-Jun-19 21:30N 46°55' W 124°11'3 6.6
2017-Jun-19 21:00N 46°52' W 124°14'3 7.0
2017-Jun-19 20:30N 46°49' W 124°17'4 7.1
2017-Jun-19 20:00N 46°46' W 124°19'3 6.5
2017-Jun-19 19:30N 46°43' W 124°22'4 7.0
2017-Jun-19 19:00N 46°40' W 124°25'4 8.0
2017-Jun-19 18:29N 46°37' W 124°28'4 7.9
2017-Jun-19 18:01N 46°33' W 124°31'4 7.5
2017-Jun-19 17:30N 46°30' W 124°31'2 4.1
2017-Jun-19 17:01N 46°32' W 124°31'3 5.5
2017-Jun-19 16:30N 46°34' W 124°33'3 6.8
2017-Jun-19 16:01N 46°36' W 124°37'3 6.0
2017-Jun-19 15:30N 46°38' W 124°41'4 7.1
2017-Jun-19 15:01N 46°35' W 124°37'4 8.0
2017-Jun-19 14:31N 46°35' W 124°32'2 2.3
2017-Jun-19 13:30N 46°32' W 124°31'2 4.2
2017-Jun-19 13:00N 46°34' W 124°33'2 4.0
2017-Jun-19 12:30N 46°33' W 124°35'0 0.7
2017-Jun-19 12:00N 46°33' W 124°35'0 0.6
2017-Jun-19 11:30N 46°34' W 124°35'0 0.6
2017-Jun-19 11:00N 46°34' W 124°34'0 0.4
2017-Jun-19 10:30N 46°34' W 124°34'0 0.4
2017-Jun-19 10:00N 46°34' W 124°34'0 0.3
2017-Jun-19 09:30N 46°34' W 124°34'0 0.3
2017-Jun-19 09:00N 46°34' W 124°34'0 0.3
2017-Jun-19 08:30N 46°34' W 124°34'0 0.3
2017-Jun-19 08:00N 46°35' W 124°33'0 0.2
2017-Jun-19 07:30N 46°35' W 124°33'0 0.0
2017-Jun-19 07:00N 46°35' W 124°33'0 0.2
2017-Jun-19 06:30N 46°35' W 124°33'0 0.2
2017-Jun-19 06:00N 46°35' W 124°33'0 0.1
2017-Jun-19 05:30N 46°35' W 124°33'0 0.2
2017-Jun-19 05:00N 46°34' W 124°33'1 1.5
2017-Jun-19 04:30N 46°34' W 124°32'0 0.9
2017-Jun-19 04:00N 46°33' W 124°32'0 0.7
2017-Jun-19 03:30N 46°33' W 124°32'1 2.3
2017-Jun-19 03:00N 46°32' W 124°32'1 2.7
2017-Jun-19 02:30N 46°31' W 124°32'2 3.3
2017-Jun-19 02:00N 46°29' W 124°32'1 2.5
2017-Jun-19 01:29N 46°30' W 124°30'1 3.0
2017-Jun-19 01:00N 46°32' W 124°30'2 3.0
2017-Jun-19 00:30N 46°33' W 124°30'1 2.0
2017-Jun-19 00:00N 46°34' W 124°31'1 2.9
2017-Jun-18 23:30N 46°35' W 124°33'3 6.4
2017-Jun-18 23:01N 46°33' W 124°29'3 5.5
2017-Jun-18 22:31N 46°34' W 124°33'3 6.8
2017-Jun-18 22:00N 46°35' W 124°38'3 5.3
2017-Jun-18 21:30N 46°37' W 124°40'1 2.0
2017-Jun-18 21:00N 46°37' W 124°38'3 6.6
2017-Jun-18 20:30N 46°36' W 124°34'3 6.7
2017-Jun-18 20:00N 46°33' W 124°30'3 6.1
2017-Jun-18 19:30N 46°30' W 124°30'1 2.9
2017-Jun-18 19:00N 46°31' W 124°32'1 2.7
2017-Jun-18 18:30N 46°32' W 124°31'3 6.7
2017-Jun-18 18:01N 46°34' W 124°34'4 7.8
2017-Jun-18 17:30N 46°37' W 124°39'4 7.6
2017-Jun-18 17:00N 46°40' W 124°35'4 8.4
2017-Jun-18 16:30N 46°43' W 124°31'4 8.4
2017-Jun-18 16:00N 46°46' W 124°26'4 8.2
2017-Jun-18 15:30N 46°48' W 124°22'4 8.2
2017-Jun-18 15:00N 46°51' W 124°17'8 7.2
2017-Jun-18 13:52N 46°55' W 124°07'1 1.9
2017-Jun-18 13:30N 46°54' W 124°06'0 0.0
2017-Jun-18 13:00N 46°54' W 124°06'0 0.1
2017-Jun-18 12:30N 46°54' W 124°06'0 0.0
2017-Jun-18 12:00N 46°54' W 124°06'0 0.0
2017-Jun-18 11:30N 46°54' W 124°06'0 0.0
2017-Jun-18 11:00N 46°54' W 124°06'0 0.0
2017-Jun-18 10:30N 46°54' W 124°06'0 0.0
2017-Jun-18 10:00N 46°54' W 124°06'0 0.0
2017-Jun-18 09:30N 46°54' W 124°06'0 0.0
2017-Jun-18 09:00N 46°54' W 124°06'0 0.0
2017-Jun-18 08:30N 46°54' W 124°06'0 0.0
2017-Jun-18 08:00N 46°54' W 124°06'0 0.0
2017-Jun-18 07:30N 46°54' W 124°06'0 0.0
2017-Jun-18 07:00N 46°54' W 124°06'0 0.0
2017-Jun-18 06:30N 46°54' W 124°06'0 0.0
2017-Jun-18 06:00N 46°54' W 124°06'0 0.1
2017-Jun-18 05:30N 46°54' W 124°06'0 0.0
2017-Jun-18 05:00N 46°54' W 124°06'0 0.0
2017-Jun-18 04:30N 46°54' W 124°06'0 0.0
2017-Jun-18 04:00N 46°54' W 124°06'0 0.0
2017-Jun-18 03:30N 46°54' W 124°06'0 0.0
2017-Jun-18 02:31N 46°54' W 124°06'0 0.0
2017-Jun-18 02:30N 46°54' W 124°06'0 0.0
2017-Jun-18 02:00N 46°54' W 124°06'0 0.0
2017-Jun-18 01:30N 46°54' W 124°06'0 0.0
2017-Jun-18 01:00N 46°54' W 124°06'0 0.0
2017-Jun-18 00:30N 46°54' W 124°06'0 0.0
2017-Jun-18 00:00N 46°54' W 124°06'0 0.0
2017-Jun-17 23:30N 46°54' W 124°06'0 0.1
2017-Jun-17 23:00N 46°54' W 124°06'2 4.6
2017-Jun-17 22:30N 46°55' W 124°10'4 8.5
2017-Jun-17 22:00N 46°53' W 124°15'4 8.5
2017-Jun-17 21:30N 46°50' W 124°19'4 8.3
2017-Jun-17 21:00N 46°47' W 124°23'4 7.7
2017-Jun-17 20:30N 46°44' W 124°27'4 7.7
2017-Jun-17 20:00N 46°41' W 124°31'4 7.7
2017-Jun-17 19:30N 46°38' W 124°35'2 4.3
2017-Jun-17 19:00N 46°37' W 124°38'1 1.4
2017-Jun-17 18:30N 46°37' W 124°39'1 2.8
2017-Jun-17 18:00N 46°38' W 124°40'1 3.0
2017-Jun-17 17:30N 46°39' W 124°42'1 2.2
2017-Jun-17 17:00N 46°40' W 124°43'2 4.2
2017-Jun-17 16:30N 46°38' W 124°41'2 3.3
2017-Jun-17 16:00N 46°37' W 124°39'1 1.3
2017-Jun-17 15:30N 46°37' W 124°38'1 1.5
2017-Jun-17 15:00N 46°37' W 124°39'1 2.7
2017-Jun-17 14:30N 46°38' W 124°41'1 1.0
2017-Jun-17 13:30N 46°38' W 124°39'3 5.4
2017-Jun-17 13:00N 46°35' W 124°37'3 5.2
2017-Jun-17 12:30N 46°38' W 124°36'4 8.3
2017-Jun-17 12:00N 46°41' W 124°32'4 8.3
2017-Jun-17 11:30N 46°44' W 124°28'4 8.1
2017-Jun-17 11:00N 46°47' W 124°24'4 7.7
2017-Jun-17 10:30N 46°49' W 124°20'4 7.3
2017-Jun-17 10:00N 46°52' W 124°16'4 7.5
2017-Jun-17 09:30N 46°55' W 124°12'4 7.2
2017-Jun-17 09:00N 46°55' W 124°07'1 1.3
2017-Jun-17 08:30N 46°54' W 124°06'0 0.0
2017-Jun-17 08:00N 46°54' W 124°06'0 0.0
2017-Jun-17 07:30N 46°54' W 124°06'0 0.0
2017-Jun-17 07:00N 46°54' W 124°06'0 0.0
2017-Jun-17 06:30N 46°54' W 124°06'0 0.0
2017-Jun-17 06:00N 46°54' W 124°06'0 0.0
2017-Jun-17 05:30N 46°54' W 124°06'0 0.0
2017-Jun-17 05:00N 46°54' W 124°06'0 0.0
2017-Jun-17 04:30N 46°54' W 124°06'0 0.0
2017-Jun-17 04:00N 46°54' W 124°06'0 0.0
2017-Jun-17 03:30N 46°54' W 124°06'0 0.0
2017-Jun-17 03:00N 46°54' W 124°06'0 0.0
2017-Jun-17 02:30N 46°54' W 124°06'0 0.1
2017-Jun-17 02:00N 46°54' W 124°06'0 0.0
2017-Jun-17 00:43N 46°54' W 124°06'0 0.0
2017-Jun-17 00:30N 46°54' W 124°06'0 0.0
2017-Jun-17 00:00N 46°54' W 124°06'0 0.0
2017-Jun-16 23:30N 46°54' W 124°06'0 0.0
2017-Jun-16 23:00N 46°54' W 124°06'0 0.0
2017-Jun-16 22:29N 46°54' W 124°06'0 0.3
2017-Jun-16 22:00N 46°55' W 124°06'4 8.1
2017-Jun-16 21:31N 46°54' W 124°12'510.1
2017-Jun-16 21:00N 46°50' W 124°17'510.4
2017-Jun-16 20:30N 46°46' W 124°22'5 9.8
2017-Jun-16 20:00N 46°42' W 124°26'5 9.3
2017-Jun-16 19:30N 46°39' W 124°31'4 8.7
2017-Jun-16 19:00N 46°35' W 124°34'2 4.0
2017-Jun-16 18:30N 46°33' W 124°36'1 1.4
2017-Jun-16 18:01N 46°34' W 124°37'1 1.5
2017-Jun-16 17:30N 46°34' W 124°36'1 2.9
2017-Jun-16 17:00N 46°35' W 124°34'2 3.2
2017-Jun-16 16:30N 46°34' W 124°32'2 3.1
2017-Jun-16 16:00N 46°33' W 124°31'2 3.2
2017-Jun-16 15:30N 46°31' W 124°31'2 3.1
2017-Jun-16 15:00N 46°29' W 124°31'2 3.0
2017-Jun-16 14:30N 46°28' W 124°31'6 6.1
2017-Jun-16 13:30N 46°34' W 124°32'4 8.2
2017-Jun-16 13:00N 46°36' W 124°38'3 6.9
2017-Jun-16 12:31N 46°39' W 124°39'3 6.8
2017-Jun-16 12:00N 46°42' W 124°35'3 6.9
2017-Jun-16 11:30N 46°44' W 124°31'3 6.8
2017-Jun-16 11:00N 46°46' W 124°27'3 6.9
2017-Jun-16 10:30N 46°48' W 124°23'3 6.6
2017-Jun-16 10:00N 46°50' W 124°20'3 6.0
2017-Jun-16 09:30N 46°52' W 124°16'3 5.7
2017-Jun-16 09:01N 46°54' W 124°13'3 5.5
2017-Jun-16 08:31N 46°55' W 124°09'2 4.3
2017-Jun-16 08:01N 46°54' W 124°06'0 0.1
2017-Jun-16 07:30N 46°54' W 124°06'0 0.0
2017-Jun-16 07:00N 46°54' W 124°06'0 0.1
2017-Jun-16 06:30N 46°54' W 124°06'0 0.0
2017-Jun-16 06:00N 46°54' W 124°06'0 0.0
2017-Jun-16 05:30N 46°54' W 124°06'0 0.0
2017-Jun-16 05:00N 46°54' W 124°06'0 0.0
2017-Jun-16 04:30N 46°54' W 124°06'0 0.0
2017-Jun-16 04:00N 46°54' W 124°06'0 0.0
2017-Jun-16 03:30N 46°54' W 124°06'0 0.0
2017-Jun-16 03:00N 46°54' W 124°06'0 0.0
2017-Jun-16 02:29N 46°54' W 124°06'0 0.0
2017-Jun-16 02:00N 46°54' W 124°06'0 0.0
2017-Jun-16 01:30N 46°54' W 124°06'0 0.0
2017-Jun-16 01:00N 46°54' W 124°06'0 0.1
2017-Jun-16 00:30N 46°54' W 124°06'0 0.0
2017-Jun-16 00:00N 46°54' W 124°06'0 0.0
2017-Jun-15 23:30N 46°54' W 124°06'0 0.0
2017-Jun-15 23:00N 46°54' W 124°06'0 0.0
2017-Jun-15 22:30N 46°54' W 124°06'0 0.0
2017-Jun-15 22:00N 46°54' W 124°06'0 0.0
2017-Jun-15 21:30N 46°54' W 124°06'0 0.0
2017-Jun-15 21:00N 46°54' W 124°06'0 0.0
2017-Jun-15 20:30N 46°54' W 124°06'0 0.0
2017-Jun-15 20:00N 46°54' W 124°06'0 0.0
2017-Jun-15 19:30N 46°54' W 124°06'0 0.0
2017-Jun-15 19:00N 46°54' W 124°06'0 0.0
2017-Jun-15 18:30N 46°54' W 124°06'0 0.0
2017-Jun-15 18:00N 46°54' W 124°06'0 0.0
2017-Jun-15 17:30N 46°54' W 124°06'0 0.0
2017-Jun-15 17:00N 46°54' W 124°06'0 0.0
2017-Jun-15 16:30N 46°54' W 124°06'0 0.0
2017-Jun-15 16:00N 46°54' W 124°06'0 0.0
2017-Jun-15 15:30N 46°54' W 124°06'0 0.0
2017-Jun-15 15:00N 46°54' W 124°06'0 0.0
2017-Jun-15 14:30N 46°54' W 124°06'0 0.0
2017-Jun-15 13:30N 46°54' W 124°06'0 0.0
2017-Jun-15 13:00N 46°54' W 124°06'0 0.0
2017-Jun-15 12:30N 46°54' W 124°06'0 0.0
2017-Jun-15 12:00N 46°54' W 124°06'0 0.0
2017-Jun-15 11:30N 46°54' W 124°06'0 0.0
2017-Jun-15 11:00N 46°54' W 124°06'0 0.0
2017-Jun-15 10:30N 46°54' W 124°06'0 0.0
2017-Jun-15 10:00N 46°54' W 124°06'0 0.0
2017-Jun-15 09:30N 46°54' W 124°06'0 0.0
2017-Jun-15 09:00N 46°54' W 124°06'0 0.0
2017-Jun-15 08:30N 46°54' W 124°06'0 0.3
2017-Jun-15 08:00N 46°55' W 124°06'4 7.8
2017-Jun-15 07:30N 46°55' W 124°12'3 7.0
2017-Jun-15 07:00N 46°58' W 124°16'4 7.6
2017-Jun-15 06:30N 47°00' W 124°20'4 8.1
2017-Jun-15 05:59N 47°04' W 124°24'4 0.2
2017-Jun-14 13:23N 47°06' W 124°29'5 8.7
2017-Jun-14 12:49N 47°02' W 124°23'3 8.5
2017-Jun-14 12:30N 47°01' W 124°20'4 8.0
2017-Jun-14 12:00N 46°58' W 124°16'4 8.1
2017-Jun-14 11:30N 46°55' W 124°12'4 7.4
2017-Jun-14 11:00N 46°55' W 124°06'0 0.2
2017-Jun-14 10:30N 46°54' W 124°06'0 0.1
2017-Jun-14 10:00N 46°54' W 124°06'0 0.0
2017-Jun-14 09:30N 46°54' W 124°06'0 0.0
2017-Jun-14 08:59N 46°54' W 124°06'0 0.0
2017-Jun-14 08:30N 46°54' W 124°06'0 0.0
2017-Jun-14 08:00N 46°54' W 124°06'0 0.0
2017-Jun-14 07:30N 46°54' W 124°06'0 0.0
2017-Jun-14 07:00N 46°54' W 124°06'0 0.0
2017-Jun-14 06:30N 46°54' W 124°06'0 0.1
2017-Jun-14 06:00N 46°54' W 124°06'0 0.0
2017-Jun-14 05:30N 46°54' W 124°06'  
Track history (hours):
 
Tides and Currents Weather Stations Pressure Air Temp Water Temp Dewpoint Dewpoint Depression Visibility Wind Speed Wind Dir Waves Ship Positions

Jamie Marie

Owner: Jamie Marie, Inc., Aberdeen, WA. More information available from US FCC via Universal Licensing System and Coast Guard Vessel Documentation Center.

Last reported at 2017-Jun-24 05:01 UTC. Time now 2017-Jun-24 05:24 UTC.
Position N 47°06' W 124°25'.

Length 30 m.

Type: Fishing. MMSI: 366425240.

Date/timePositionNaut miles runAvg speedWind from/ knotsBaromVisibWave heightAir tempDewpointWater temp
2017-Jun-24 05:01N 47°06' W 124°25'4 8.7
2017-Jun-24 04:31N 47°10' W 124°29'5 9.2
2017-Jun-24 04:00N 47°14' W 124°33'5 9.3
2017-Jun-24 03:30N 47°17' W 124°37'5 9.0
2017-Jun-24 03:00N 47°21' W 124°41'4 8.8
2017-Jun-24 02:30N 47°25' W 124°45'4 8.8
2017-Jun-24 02:01N 47°28' W 124°49'4 8.8
2017-Jun-24 01:30N 47°32' W 124°53'5 8.9
2017-Jun-24 00:54N 47°36' W 124°58'3 8.9
2017-Jun-24 00:30N 47°39' W 125°01'4 7.6
2017-Jun-24 00:00N 47°42' W 125°04'1 2.9
2017-Jun-23 23:30N 47°43' W 125°03'1 2.8
2017-Jun-23 23:00N 47°44' W 125°04'1 1.7
2017-Jun-23 22:30N 47°44' W 125°05'1 2.4
2017-Jun-23 22:00N 47°43' W 125°05'1 2.9
2017-Jun-23 21:30N 47°42' W 125°05'2 3.1
2017-Jun-23 21:00N 47°40' W 125°06'4 8.3
2017-Jun-23 20:30N 47°37' W 125°03'4 8.7
2017-Jun-23 20:01N 47°33' W 124°59'4 8.5
2017-Jun-23 19:30N 47°30' W 124°55'4 8.4
2017-Jun-23 19:00N 47°26' W 124°52'4 8.3
2017-Jun-23 18:30N 47°23' W 124°48'0 0.5
2017-Jun-23 18:00N 47°23' W 124°48'1 2.7
2017-Jun-23 17:30N 47°24' W 124°48'1 3.0
2017-Jun-23 17:00N 47°26' W 124°49'1 2.7
2017-Jun-23 16:30N 47°27' W 124°50'3 6.3
2017-Jun-23 16:00N 47°24' W 124°48'3 6.0
2017-Jun-23 15:30N 47°21' W 124°48'3 6.9
2017-Jun-23 15:00N 47°18' W 124°45'3 2.8
2017-Jun-23 14:01N 47°16' W 124°44'4 7.2
2017-Jun-23 13:30N 47°13' W 124°40'4 7.2
2017-Jun-23 13:00N 47°10' W 124°36'4 7.4
2017-Jun-23 12:30N 47°08' W 124°32'4 7.3
2017-Jun-23 12:00N 47°05' W 124°29'4 7.3
2017-Jun-23 11:30N 47°03' W 124°25'4 7.4
2017-Jun-23 11:00N 47°00' W 124°21'4 7.6
2017-Jun-23 10:30N 46°57' W 124°17'4 7.9
2017-Jun-23 10:00N 46°55' W 124°12'4 8.2
2017-Jun-23 09:30N 46°54' W 124°06'0 0.1
2017-Jun-23 09:00N 46°54' W 124°06'0 0.0
2017-Jun-23 08:30N 46°54' W 124°06'0 0.0
2017-Jun-23 08:00N 46°54' W 124°06'0 0.0
2017-Jun-23 07:30N 46°54' W 124°06'0 0.0
2017-Jun-23 07:00N 46°54' W 124°06'0 0.0
2017-Jun-23 06:30N 46°54' W 124°06'0 0.0
2017-Jun-23 06:00N 46°54' W 124°06'0 0.0
2017-Jun-23 05:30N 46°54' W 124°06'0 0.0
2017-Jun-23 05:01N 46°54' W 124°06'0 0.0
2017-Jun-23 04:31N 46°54' W 124°06'0 0.0
2017-Jun-23 04:00N 46°54' W 124°06'0 0.0
2017-Jun-23 03:29N 46°54' W 124°06'1 1.7
2017-Jun-23 03:00N 46°55' W 124°07'5 9.3
2017-Jun-23 02:30N 46°56' W 124°14'4 9.0
2017-Jun-23 02:00N 46°59' W 124°19'5 9.1
2017-Jun-23 01:30N 47°02' W 124°24'5 9.3
2017-Jun-23 01:00N 47°05' W 124°29'5 9.0
2017-Jun-23 00:30N 47°08' W 124°34'4 8.9
2017-Jun-23 00:00N 47°11' W 124°39'4 8.7
2017-Jun-22 23:31N 47°14' W 124°43'2 4.6
2017-Jun-22 23:00N 47°15' W 124°46'1 2.8
2017-Jun-22 22:30N 47°16' W 124°46'1 2.4
2017-Jun-22 22:00N 47°18' W 124°46'1 3.0
2017-Jun-22 21:30N 47°19' W 124°46'2 3.1
2017-Jun-22 20:58N 47°21' W 124°47'1 3.2
2017-Jun-22 20:30N 47°22' W 124°47'2 3.2
2017-Jun-22 19:58N 47°24' W 124°48'2 3.2
2017-Jun-22 19:23N 47°26' W 124°49'1 3.1
2017-Jun-22 18:55N 47°27' W 124°50'1 3.3
2017-Jun-22 18:30N 47°28' W 124°51'1 1.5
2017-Jun-22 17:45N 47°27' W 124°50'2 6.2
2017-Jun-22 17:21N 47°25' W 124°48'6 3.9
2017-Jun-22 15:53N 47°19' W 124°46'1 2.5
2017-Jun-22 15:24N 47°20' W 124°46'2 2.3
2017-Jun-22 14:34N 47°22' W 124°47'2 3.2
2017-Jun-22 13:50N 47°24' W 124°48'2 3.6
2017-Jun-22 13:23N 47°26' W 124°49'6 3.3
2017-Jun-22 11:27N 47°20' W 124°46'4 7.6
2017-Jun-22 10:56N 47°17' W 124°42'5 7.7
2017-Jun-22 10:15N 47°13' W 124°37'1811.6
2017-Jun-22 08:42N 46°60' W 124°19'1 6.1
2017-Jun-22 08:30N 46°59' W 124°18'3 6.5
2017-Jun-22 08:00N 47°01' W 124°21'4 7.0
2017-Jun-22 07:29N 46°59' W 124°18'3 6.7
2017-Jun-22 07:00N 46°56' W 124°14'3 6.1
2017-Jun-22 06:30N 46°55' W 124°10'3 5.6
2017-Jun-22 06:00N 46°54' W 124°06'0 0.0
2017-Jun-22 05:30N 46°54' W 124°06'0 0.0
2017-Jun-22 05:00N 46°54' W 124°06'0 0.0
2017-Jun-22 04:30N 46°54' W 124°06'0 0.0
2017-Jun-22 04:00N 46°54' W 124°06'0 0.0
2017-Jun-22 03:30N 46°54' W 124°06'0 0.0
2017-Jun-22 02:42N 46°54' W 124°06'0 0.0
2017-Jun-22 02:30N 46°54' W 124°06'0 0.0
2017-Jun-22 02:00N 46°54' W 124°06'0 0.0
2017-Jun-22 01:30N 46°54' W 124°06'0 0.0
2017-Jun-22 01:00N 46°54' W 124°06'0 0.0
2017-Jun-22 00:30N 46°54' W 124°06'0 0.0
2017-Jun-22 00:00N 46°54' W 124°06'0 0.0
2017-Jun-21 23:30N 46°54' W 124°06'0 0.0
2017-Jun-21 23:00N 46°54' W 124°06'0 0.0
2017-Jun-21 22:30N 46°54' W 124°06'0 0.0
2017-Jun-21 22:00N 46°54' W 124°06'0 0.0
2017-Jun-21 21:30N 46°54' W 124°06'0 0.0
2017-Jun-21 21:00N 46°54' W 124°06'0 0.0
2017-Jun-21 20:30N 46°54' W 124°06'0 0.4
2017-Jun-21 20:00N 46°55' W 124°07'0 0.0
2017-Jun-21 19:30N 46°55' W 124°07'0 0.4
2017-Jun-21 19:00N 46°54' W 124°06'0 0.1
2017-Jun-21 18:30N 46°54' W 124°06'0 0.0
2017-Jun-21 18:00N 46°54' W 124°06'0 0.0
2017-Jun-21 17:30N 46°54' W 124°06'0 0.0
2017-Jun-21 17:00N 46°54' W 124°06'0 0.0
2017-Jun-21 16:30N 46°54' W 124°06'0 0.0
2017-Jun-21 16:00N 46°54' W 124°06'0 0.0
2017-Jun-21 15:17N 46°54' W 124°06'0 0.0
2017-Jun-21 14:58N 46°54' W 124°06'0 0.0
2017-Jun-21 14:30N 46°54' W 124°06'0 0.0
2017-Jun-21 13:30N 46°54' W 124°06'0 0.0
2017-Jun-21 13:00N 46°54' W 124°06'0 0.0
2017-Jun-21 12:30N 46°54' W 124°06'0 0.1
2017-Jun-21 12:00N 46°54' W 124°06'0 0.0
2017-Jun-21 11:22N 46°54' W 124°06'0 0.0
2017-Jun-21 10:49N 46°54' W 124°06'0 0.0
2017-Jun-21 10:30N 46°54' W 124°06'0 0.0
2017-Jun-21 10:00N 46°54' W 124°06'0 0.0
2017-Jun-21 09:30N 46°54' W 124°06'0 0.0
2017-Jun-21 09:00N 46°54' W 124°06'0 0.0
2017-Jun-21 08:30N 46°54' W 124°06'0 0.0
2017-Jun-21 08:00N 46°54' W 124°06'0 0.0
2017-Jun-21 07:30N 46°54' W 124°06'0 0.0
2017-Jun-21 07:00N 46°54' W 124°06'0 0.0
2017-Jun-21 06:30N 46°54' W 124°06'0 0.0
2017-Jun-21 06:00N 46°54' W 124°06'0 0.0
2017-Jun-21 05:30N 46°54' W 124°06'0 0.0
2017-Jun-21 05:00N 46°54' W 124°06'2 3.0
2017-Jun-21 04:29N 46°55' W 124°09'3 6.4
2017-Jun-21 04:00N 46°53' W 124°13'3 5.7
2017-Jun-21 03:30N 46°51' W 124°14'3 5.6
2017-Jun-21 03:00N 46°48' W 124°15'3 6.3
2017-Jun-21 02:30N 46°45' W 124°17'3 6.4
2017-Jun-21 02:01N 46°42' W 124°19'3 6.4
2017-Jun-21 01:30N 46°39' W 124°20'3 6.4
2017-Jun-21 01:00N 46°36' W 124°22'3 6.3
2017-Jun-21 00:30N 46°33' W 124°23'3 6.3
2017-Jun-21 00:00N 46°30' W 124°25'3 6.7
2017-Jun-20 23:30N 46°27' W 124°26'3 6.1
2017-Jun-20 23:00N 46°24' W 124°28'3 5.7
2017-Jun-20 22:30N 46°21' W 124°29'3 5.5
2017-Jun-20 22:00N 46°19' W 124°31'3 5.4
2017-Jun-20 21:30N 46°16' W 124°32'3 5.2
2017-Jun-20 21:01N 46°14' W 124°33'0 0.2
2017-Jun-20 20:30N 46°14' W 124°33'1 2.2
2017-Jun-20 20:00N 46°15' W 124°33'1 2.9
2017-Jun-20 19:30N 46°15' W 124°31'2 3.1
2017-Jun-20 19:01N 46°16' W 124°28'4 7.6
2017-Jun-20 18:30N 46°15' W 124°34'3 5.1
2017-Jun-20 18:00N 46°16' W 124°38'0 0.5
2017-Jun-20 17:30N 46°16' W 124°37'1 1.4
2017-Jun-20 17:01N 46°15' W 124°36'1 1.7
2017-Jun-20 16:30N 46°16' W 124°35'1 2.9
2017-Jun-20 16:00N 46°15' W 124°33'2 2.9
2017-Jun-20 15:30N 46°16' W 124°31'2 3.4
2017-Jun-20 15:00N 46°16' W 124°29'4 3.8
2017-Jun-20 14:00N 46°15' W 124°34'3 6.1
2017-Jun-20 13:30N 46°16' W 124°30'3 6.8
2017-Jun-20 13:00N 46°19' W 124°26'4 8.6
2017-Jun-20 12:31N 46°23' W 124°25'4 8.6
2017-Jun-20 12:00N 46°27' W 124°23'4 8.2
2017-Jun-20 11:30N 46°31' W 124°22'4 8.3
2017-Jun-20 11:00N 46°35' W 124°20'4 8.1
2017-Jun-20 10:30N 46°39' W 124°18'4 8.2
2017-Jun-20 10:00N 46°43' W 124°17'4 8.5
2017-Jun-20 09:30N 46°47' W 124°16'5 9.0
2017-Jun-20 09:00N 46°51' W 124°14'4 8.7
2017-Jun-20 08:30N 46°55' W 124°11'3 5.8
2017-Jun-20 08:00N 46°54' W 124°06'0 0.0
2017-Jun-20 07:30N 46°54' W 124°06'0 0.2
2017-Jun-20 07:01N 46°54' W 124°06'0 0.2
2017-Jun-20 06:30N 46°54' W 124°06'0 0.0
2017-Jun-20 06:00N 46°54' W 124°06'0 0.0
2017-Jun-20 05:29N 46°54' W 124°06'0 0.0
2017-Jun-20 05:00N 46°54' W 124°06'0 0.0
2017-Jun-20 04:30N 46°54' W 124°06'0 0.0
2017-Jun-20 04:01N 46°54' W 124°06'0 0.0
2017-Jun-20 03:30N 46°54' W 124°06'0 0.0
2017-Jun-20 03:00N 46°54' W 124°06'0 0.0
2017-Jun-20 02:30N 46°54' W 124°06'0 0.0
2017-Jun-20 01:59N 46°54' W 124°06'0 0.0
2017-Jun-20 01:30N 46°54' W 124°06'0 0.0
2017-Jun-20 01:00N 46°54' W 124°06'0 0.0
2017-Jun-20 00:30N 46°54' W 124°06'0 0.0
2017-Jun-20 00:00N 46°54' W 124°06'0 0.0
2017-Jun-19 23:30N 46°54' W 124°06'0 0.0
2017-Jun-19 23:00N 46°54' W 124°06'0 0.0
2017-Jun-19 22:30N 46°54' W 124°06'1 1.4
2017-Jun-19 22:00N 46°55' W 124°07'3 6.1
2017-Jun-19 21:30N 46°55' W 124°11'3 6.6
2017-Jun-19 21:00N 46°52' W 124°14'3 7.0
2017-Jun-19 20:30N 46°49' W 124°17'4 7.1
2017-Jun-19 20:00N 46°46' W 124°19'3 6.5
2017-Jun-19 19:30N 46°43' W 124°22'4 7.0
2017-Jun-19 19:00N 46°40' W 124°25'4 8.0
2017-Jun-19 18:29N 46°37' W 124°28'4 7.9
2017-Jun-19 18:01N 46°33' W 124°31'4 7.5
2017-Jun-19 17:30N 46°30' W 124°31'2 4.1
2017-Jun-19 17:01N 46°32' W 124°31'3 5.5
2017-Jun-19 16:30N 46°34' W 124°33'3 6.8
2017-Jun-19 16:01N 46°36' W 124°37'3 6.0
2017-Jun-19 15:30N 46°38' W 124°41'4 7.1
2017-Jun-19 15:01N 46°35' W 124°37'4 8.0
2017-Jun-19 14:31N 46°35' W 124°32'2 2.3
2017-Jun-19 13:30N 46°32' W 124°31'2 4.2
2017-Jun-19 13:00N 46°34' W 124°33'2 4.0
2017-Jun-19 12:30N 46°33' W 124°35'0 0.7
2017-Jun-19 12:00N 46°33' W 124°35'0 0.6
2017-Jun-19 11:30N 46°34' W 124°35'0 0.6
2017-Jun-19 11:00N 46°34' W 124°34'0 0.4
2017-Jun-19 10:30N 46°34' W 124°34'0 0.4
2017-Jun-19 10:00N 46°34' W 124°34'0 0.3
2017-Jun-19 09:30N 46°34' W 124°34'0 0.3
2017-Jun-19 09:00N 46°34' W 124°34'0 0.3
2017-Jun-19 08:30N 46°34' W 124°34'0 0.3
2017-Jun-19 08:00N 46°35' W 124°33'0 0.2
2017-Jun-19 07:30N 46°35' W 124°33'0 0.0
2017-Jun-19 07:00N 46°35' W 124°33'0 0.2
2017-Jun-19 06:30N 46°35' W 124°33'0 0.2
2017-Jun-19 06:00N 46°35' W 124°33'0 0.1
2017-Jun-19 05:30N 46°35' W 124°33'0 0.2
2017-Jun-19 05:00N 46°34' W 124°33'1 1.5
2017-Jun-19 04:30N 46°34' W 124°32'0 0.9
2017-Jun-19 04:00N 46°33' W 124°32'0 0.7
2017-Jun-19 03:30N 46°33' W 124°32'1 2.3
2017-Jun-19 03:00N 46°32' W 124°32'1 2.7
2017-Jun-19 02:30N 46°31' W 124°32'2 3.3
2017-Jun-19 02:00N 46°29' W 124°32'1 2.5
2017-Jun-19 01:29N 46°30' W 124°30'1 3.0
2017-Jun-19 01:00N 46°32' W 124°30'2 3.0
2017-Jun-19 00:30N 46°33' W 124°30'1 2.0
2017-Jun-19 00:00N 46°34' W 124°31'1 2.9
2017-Jun-18 23:30N 46°35' W 124°33'3 6.4
2017-Jun-18 23:01N 46°33' W 124°29'3 5.5
2017-Jun-18 22:31N 46°34' W 124°33'3 6.8
2017-Jun-18 22:00N 46°35' W 124°38'3 5.3
2017-Jun-18 21:30N 46°37' W 124°40'1 2.0
2017-Jun-18 21:00N 46°37' W 124°38'3 6.6
2017-Jun-18 20:30N 46°36' W 124°34'3 6.7
2017-Jun-18 20:00N 46°33' W 124°30'3 6.1
2017-Jun-18 19:30N 46°30' W 124°30'1 2.9
2017-Jun-18 19:00N 46°31' W 124°32'1 2.7
2017-Jun-18 18:30N 46°32' W 124°31'3 6.7
2017-Jun-18 18:01N 46°34' W 124°34'4 7.8
2017-Jun-18 17:30N 46°37' W 124°39'4 7.6
2017-Jun-18 17:00N 46°40' W 124°35'4 8.4
2017-Jun-18 16:30N 46°43' W 124°31'4 8.4
2017-Jun-18 16:00N 46°46' W 124°26'4 8.2
2017-Jun-18 15:30N 46°48' W 124°22'4 8.2
2017-Jun-18 15:00N 46°51' W 124°17'8 7.2
2017-Jun-18 13:52N 46°55' W 124°07'1 1.9
2017-Jun-18 13:30N 46°54' W 124°06'0 0.0
2017-Jun-18 13:00N 46°54' W 124°06'0 0.1
2017-Jun-18 12:30N 46°54' W 124°06'0 0.0
2017-Jun-18 12:00N 46°54' W 124°06'0 0.0
2017-Jun-18 11:30N 46°54' W 124°06'0 0.0
2017-Jun-18 11:00N 46°54' W 124°06'0 0.0
2017-Jun-18 10:30N 46°54' W 124°06'0 0.0
2017-Jun-18 10:00N 46°54' W 124°06'0 0.0
2017-Jun-18 09:30N 46°54' W 124°06'0 0.0
2017-Jun-18 09:00N 46°54' W 124°06'0 0.0
2017-Jun-18 08:30N 46°54' W 124°06'0 0.0
2017-Jun-18 08:00N 46°54' W 124°06'0 0.0
2017-Jun-18 07:30N 46°54' W 124°06'0 0.0
2017-Jun-18 07:00N 46°54' W 124°06'0 0.0
2017-Jun-18 06:30N 46°54' W 124°06'0 0.0
2017-Jun-18 06:00N 46°54' W 124°06'0 0.1
2017-Jun-18 05:30N 46°54' W 124°06'0 0.0
2017-Jun-18 05:00N 46°54' W 124°06'0 0.0
2017-Jun-18 04:30N 46°54' W 124°06'0 0.0
2017-Jun-18 04:00N 46°54' W 124°06'0 0.0
2017-Jun-18 03:30N 46°54' W 124°06'0 0.0
2017-Jun-18 02:31N 46°54' W 124°06'0 0.0
2017-Jun-18 02:30N 46°54' W 124°06'0 0.0
2017-Jun-18 02:00N 46°54' W 124°06'0 0.0
2017-Jun-18 01:30N 46°54' W 124°06'0 0.0
2017-Jun-18 01:00N 46°54' W 124°06'0 0.0
2017-Jun-18 00:30N 46°54' W 124°06'0 0.0
2017-Jun-18 00:00N 46°54' W 124°06'0 0.0
2017-Jun-17 23:30N 46°54' W 124°06'0 0.1
2017-Jun-17 23:00N 46°54' W 124°06'2 4.6
2017-Jun-17 22:30N 46°55' W 124°10'4 8.5
2017-Jun-17 22:00N 46°53' W 124°15'4 8.5
2017-Jun-17 21:30N 46°50' W 124°19'4 8.3
2017-Jun-17 21:00N 46°47' W 124°23'4 7.7
2017-Jun-17 20:30N 46°44' W 124°27'4 7.7
2017-Jun-17 20:00N 46°41' W 124°31'4 7.7
2017-Jun-17 19:30N 46°38' W 124°35'2 4.3
2017-Jun-17 19:00N 46°37' W 124°38'1 1.4
2017-Jun-17 18:30N 46°37' W 124°39'1 2.8
2017-Jun-17 18:00N 46°38' W 124°40'1 3.0
2017-Jun-17 17:30N 46°39' W 124°42'1 2.2
2017-Jun-17 17:00N 46°40' W 124°43'2 4.2
2017-Jun-17 16:30N 46°38' W 124°41'2 3.3
2017-Jun-17 16:00N 46°37' W 124°39'1 1.3
2017-Jun-17 15:30N 46°37' W 124°38'1 1.5
2017-Jun-17 15:00N 46°37' W 124°39'1 2.7
2017-Jun-17 14:30N 46°38' W 124°41'1 1.0
2017-Jun-17 13:30N 46°38' W 124°39'3 5.4
2017-Jun-17 13:00N 46°35' W 124°37'3 5.2
2017-Jun-17 12:30N 46°38' W 124°36'4 8.3
2017-Jun-17 12:00N 46°41' W 124°32'4 8.3
2017-Jun-17 11:30N 46°44' W 124°28'4 8.1
2017-Jun-17 11:00N 46°47' W 124°24'4 7.7
2017-Jun-17 10:30N 46°49' W 124°20'4 7.3
2017-Jun-17 10:00N 46°52' W 124°16'4 7.5
2017-Jun-17 09:30N 46°55' W 124°12'4 7.2
2017-Jun-17 09:00N 46°55' W 124°07'1 1.3
2017-Jun-17 08:30N 46°54' W 124°06'0 0.0
2017-Jun-17 08:00N 46°54' W 124°06'0 0.0
2017-Jun-17 07:30N 46°54' W 124°06'0 0.0
2017-Jun-17 07:00N 46°54' W 124°06'0 0.0
2017-Jun-17 06:30N 46°54' W 124°06'0 0.0
2017-Jun-17 06:00N 46°54' W 124°06'0 0.0
2017-Jun-17 05:30N 46°54' W 124°06'0 0.0
2017-Jun-17 05:00N 46°54' W 124°06'0 0.0
2017-Jun-17 04:30N 46°54' W 124°06'0 0.0
2017-Jun-17 04:00N 46°54' W 124°06'0 0.0
2017-Jun-17 03:30N 46°54' W 124°06'0 0.0
2017-Jun-17 03:00N 46°54' W 124°06'0 0.0
2017-Jun-17 02:30N 46°54' W 124°06'0 0.1
2017-Jun-17 02:00N 46°54' W 124°06'0 0.0
2017-Jun-17 00:43N 46°54' W 124°06'0 0.0
2017-Jun-17 00:30N 46°54' W 124°06'0 0.0
2017-Jun-17 00:00N 46°54' W 124°06'0 0.0
2017-Jun-16 23:30N 46°54' W 124°06'0 0.0
2017-Jun-16 23:00N 46°54' W 124°06'0 0.0
2017-Jun-16 22:29N 46°54' W 124°06'0 0.3
2017-Jun-16 22:00N 46°55' W 124°06'4 8.1
2017-Jun-16 21:31N 46°54' W 124°12'510.1
2017-Jun-16 21:00N 46°50' W 124°17'510.4
2017-Jun-16 20:30N 46°46' W 124°22'5 9.8
2017-Jun-16 20:00N 46°42' W 124°26'5 9.3
2017-Jun-16 19:30N 46°39' W 124°31'4 8.7
2017-Jun-16 19:00N 46°35' W 124°34'2 4.0
2017-Jun-16 18:30N 46°33' W 124°36'1 1.4
2017-Jun-16 18:01N 46°34' W 124°37'1 1.5
2017-Jun-16 17:30N 46°34' W 124°36'1 2.9
2017-Jun-16 17:00N 46°35' W 124°34'2 3.2
2017-Jun-16 16:30N 46°34' W 124°32'2 3.1
2017-Jun-16 16:00N 46°33' W 124°31'2 3.2
2017-Jun-16 15:30N 46°31' W 124°31'2 3.1
2017-Jun-16 15:00N 46°29' W 124°31'2 3.0
2017-Jun-16 14:30N 46°28' W 124°31'6 6.1
2017-Jun-16 13:30N 46°34' W 124°32'4 8.2
2017-Jun-16 13:00N 46°36' W 124°38'3 6.9
2017-Jun-16 12:31N 46°39' W 124°39'3 6.8
2017-Jun-16 12:00N 46°42' W 124°35'3 6.9
2017-Jun-16 11:30N 46°44' W 124°31'3 6.8
2017-Jun-16 11:00N 46°46' W 124°27'3 6.9
2017-Jun-16 10:30N 46°48' W 124°23'3 6.6
2017-Jun-16 10:00N 46°50' W 124°20'3 6.0
2017-Jun-16 09:30N 46°52' W 124°16'3 5.7
2017-Jun-16 09:01N 46°54' W 124°13'3 5.5
2017-Jun-16 08:31N 46°55' W 124°09'2 4.3
2017-Jun-16 08:01N 46°54' W 124°06'0 0.1
2017-Jun-16 07:30N 46°54' W 124°06'0 0.0
2017-Jun-16 07:00N 46°54' W 124°06'0 0.1
2017-Jun-16 06:30N 46°54' W 124°06'0 0.0
2017-Jun-16 06:00N 46°54' W 124°06'0 0.0
2017-Jun-16 05:30N 46°54' W 124°06'0 0.0
2017-Jun-16 05:00N 46°54' W 124°06'0 0.0
2017-Jun-16 04:30N 46°54' W 124°06'0 0.0
2017-Jun-16 04:00N 46°54' W 124°06'0 0.0
2017-Jun-16 03:30N 46°54' W 124°06'0 0.0
2017-Jun-16 03:00N 46°54' W 124°06'0 0.0
2017-Jun-16 02:29N 46°54' W 124°06'0 0.0
2017-Jun-16 02:00N 46°54' W 124°06'0 0.0
2017-Jun-16 01:30N 46°54' W 124°06'0 0.0
2017-Jun-16 01:00N 46°54' W 124°06'0 0.1
2017-Jun-16 00:30N 46°54' W 124°06'0 0.0
2017-Jun-16 00:00N 46°54' W 124°06'0 0.0
2017-Jun-15 23:30N 46°54' W 124°06'0 0.0
2017-Jun-15 23:00N 46°54' W 124°06'0 0.0
2017-Jun-15 22:30N 46°54' W 124°06'0 0.0
2017-Jun-15 22:00N 46°54' W 124°06'0 0.0
2017-Jun-15 21:30N 46°54' W 124°06'0 0.0
2017-Jun-15 21:00N 46°54' W 124°06'0 0.0
2017-Jun-15 20:30N 46°54' W 124°06'0 0.0
2017-Jun-15 20:00N 46°54' W 124°06'0 0.0
2017-Jun-15 19:30N 46°54' W 124°06'0 0.0
2017-Jun-15 19:00N 46°54' W 124°06'0 0.0
2017-Jun-15 18:30N 46°54' W 124°06'0 0.0
2017-Jun-15 18:00N 46°54' W 124°06'0 0.0
2017-Jun-15 17:30N 46°54' W 124°06'0 0.0
2017-Jun-15 17:00N 46°54' W 124°06'0 0.0
2017-Jun-15 16:30N 46°54' W 124°06'0 0.0
2017-Jun-15 16:00N 46°54' W 124°06'0 0.0
2017-Jun-15 15:30N 46°54' W 124°06'0 0.0
2017-Jun-15 15:00N 46°54' W 124°06'0 0.0
2017-Jun-15 14:30N 46°54' W 124°06'0 0.0
2017-Jun-15 13:30N 46°54' W 124°06'0 0.0
2017-Jun-15 13:00N 46°54' W 124°06'0 0.0
2017-Jun-15 12:30N 46°54' W 124°06'0 0.0
2017-Jun-15 12:00N 46°54' W 124°06'0 0.0
2017-Jun-15 11:30N 46°54' W 124°06'0 0.0
2017-Jun-15 11:00N 46°54' W 124°06'0 0.0
2017-Jun-15 10:30N 46°54' W 124°06'0 0.0
2017-Jun-15 10:00N 46°54' W 124°06'0 0.0
2017-Jun-15 09:30N 46°54' W 124°06'0 0.0
2017-Jun-15 09:00N 46°54' W 124°06'0 0.0
2017-Jun-15 08:30N 46°54' W 124°06'0 0.3
2017-Jun-15 08:00N 46°55' W 124°06'4 7.8
2017-Jun-15 07:30N 46°55' W 124°12'3 7.0
2017-Jun-15 07:00N 46°58' W 124°16'4 7.6
2017-Jun-15 06:30N 47°00' W 124°20'4 8.1
2017-Jun-15 05:59N 47°04' W 124°24'4 0.2
2017-Jun-14 13:23N 47°06' W 124°29'5 8.7
2017-Jun-14 12:49N 47°02' W 124°23'3 8.5
2017-Jun-14 12:30N 47°01' W 124°20'4 8.0
2017-Jun-14 12:00N 46°58' W 124°16'4 8.1
2017-Jun-14 11:30N 46°55' W 124°12'4 7.4
2017-Jun-14 11:00N 46°55' W 124°06'0 0.2
2017-Jun-14 10:30N 46°54' W 124°06'0 0.1
2017-Jun-14 10:00N 46°54' W 124°06'0 0.0
2017-Jun-14 09:30N 46°54' W 124°06'0 0.0
2017-Jun-14 08:59N 46°54' W 124°06'0 0.0
2017-Jun-14 08:30N 46°54' W 124°06'0 0.0
2017-Jun-14 08:00N 46°54' W 124°06'0 0.0
2017-Jun-14 07:30N 46°54' W 124°06'0 0.0
2017-Jun-14 07:00N 46°54' W 124°06'0 0.0
2017-Jun-14 06:30N 46°54' W 124°06'0 0.1
2017-Jun-14 06:00N 46°54' W 124°06'0 0.0
2017-Jun-14 05:30N 46°54' W 124°06'  

Dump ship's entire track history